sensor_id;sensor_type;location;lat;lon;timestamp;P1;durP1;ratioP1;P2;durP2;ratioP2
37877;SDS011;23715;53.652;8.516;2023-03-04T00:00:44;107.92;;;100.67;;
37877;SDS011;23715;53.652;8.516;2023-03-04T00:05:46;94.72;;;87.45;;
37877;SDS011;23715;53.652;8.516;2023-03-04T00:10:46;90.62;;;83.37;;
37877;SDS011;23715;53.652;8.516;2023-03-04T00:15:46;85.95;;;79.87;;
37877;SDS011;23715;53.652;8.516;2023-03-04T00:20:47;80.60;;;74.95;;
37877;SDS011;23715;53.652;8.516;2023-03-04T00:25:47;80.53;;;74.75;;
37877;SDS011;23715;53.652;8.516;2023-03-04T00:30:49;80.87;;;75.37;;
37877;SDS011;23715;53.652;8.516;2023-03-04T00:35:51;94.28;;;87.27;;
37877;SDS011;23715;53.652;8.516;2023-03-04T00:41:01;96.47;;;90.47;;
37877;SDS011;23715;53.652;8.516;2023-03-04T00:51:28;93.63;;;87.07;;
37877;SDS011;23715;53.652;8.516;2023-03-04T00:56:30;96.67;;;90.55;;
37877;SDS011;23715;53.652;8.516;2023-03-04T01:01:30;101.67;;;94.85;;
37877;SDS011;23715;53.652;8.516;2023-03-04T01:06:31;98.37;;;91.92;;
37877;SDS011;23715;53.652;8.516;2023-03-04T01:11:31;102.17;;;95.15;;
37877;SDS011;23715;53.652;8.516;2023-03-04T01:21:31;93.78;;;86.45;;
37877;SDS011;23715;53.652;8.516;2023-03-04T01:26:32;94.45;;;87.50;;
37877;SDS011;23715;53.652;8.516;2023-03-04T01:31:32;99.20;;;92.00;;
37877;SDS011;23715;53.652;8.516;2023-03-04T01:41:32;95.32;;;89.30;;
37877;SDS011;23715;53.652;8.516;2023-03-04T01:46:33;97.00;;;90.80;;
37877;SDS011;23715;53.652;8.516;2023-03-04T01:51:33;100.07;;;93.27;;
37877;SDS011;23715;53.652;8.516;2023-03-04T01:56:34;94.03;;;86.87;;
37877;SDS011;23715;53.652;8.516;2023-03-04T02:01:36;102.10;;;95.15;;
37877;SDS011;23715;53.652;8.516;2023-03-04T02:06:37;97.62;;;91.42;;
37877;SDS011;23715;53.652;8.516;2023-03-04T02:11:40;98.82;;;91.70;;
37877;SDS011;23715;53.652;8.516;2023-03-04T02:16:40;94.42;;;88.47;;
37877;SDS011;23715;53.652;8.516;2023-03-04T02:21:41;100.78;;;94.22;;
37877;SDS011;23715;53.652;8.516;2023-03-04T02:26:42;93.60;;;88.05;;
37877;SDS011;23715;53.652;8.516;2023-03-04T02:31:45;99.85;;;92.62;;
37877;SDS011;23715;53.652;8.516;2023-03-04T02:36:48;100.53;;;94.62;;
37877;SDS011;23715;53.652;8.516;2023-03-04T02:41:51;100.50;;;93.92;;
37877;SDS011;23715;53.652;8.516;2023-03-04T02:46:56;105.25;;;98.15;;
37877;SDS011;23715;53.652;8.516;2023-03-04T02:52:04;105.90;;;98.87;;
37877;SDS011;23715;53.652;8.516;2023-03-04T02:57:08;113.97;;;106.43;;
37877;SDS011;23715;53.652;8.516;2023-03-04T03:02:11;121.10;;;112.85;;
37877;SDS011;23715;53.652;8.516;2023-03-04T03:07:13;128.10;;;119.90;;
37877;SDS011;23715;53.652;8.516;2023-03-04T03:12:15;125.60;;;117.03;;
37877;SDS011;23715;53.652;8.516;2023-03-04T03:17:16;133.40;;;125.10;;
37877;SDS011;23715;53.652;8.516;2023-03-04T03:22:16;135.63;;;125.67;;
37877;SDS011;23715;53.652;8.516;2023-03-04T03:27:16;135.48;;;125.33;;
37877;SDS011;23715;53.652;8.516;2023-03-04T03:32:17;135.07;;;125.10;;
37877;SDS011;23715;53.652;8.516;2023-03-04T03:37:19;138.50;;;129.07;;
37877;SDS011;23715;53.652;8.516;2023-03-04T03:42:21;146.40;;;136.92;;
37877;SDS011;23715;53.652;8.516;2023-03-04T03:47:24;152.07;;;141.97;;
37877;SDS011;23715;53.652;8.516;2023-03-04T03:52:28;139.30;;;130.10;;
37877;SDS011;23715;53.652;8.516;2023-03-04T03:57:28;138.88;;;129.97;;
37877;SDS011;23715;53.652;8.516;2023-03-04T04:07:28;140.20;;;130.60;;
37877;SDS011;23715;53.652;8.516;2023-03-04T04:12:30;148.07;;;137.20;;
37877;SDS011;23715;53.652;8.516;2023-03-04T04:17:30;138.45;;;129.30;;
37877;SDS011;23715;53.652;8.516;2023-03-04T04:22:34;135.78;;;126.38;;
37877;SDS011;23715;53.652;8.516;2023-03-04T04:27:44;145.45;;;136.10;;
37877;SDS011;23715;53.652;8.516;2023-03-04T04:32:46;153.55;;;143.28;;
37877;SDS011;23715;53.652;8.516;2023-03-04T04:37:46;153.18;;;142.50;;
37877;SDS011;23715;53.652;8.516;2023-03-04T04:42:47;152.70;;;141.43;;
37877;SDS011;23715;53.652;8.516;2023-03-04T04:47:47;151.65;;;142.25;;
37877;SDS011;23715;53.652;8.516;2023-03-04T04:57:47;140.70;;;130.78;;
37877;SDS011;23715;53.652;8.516;2023-03-04T05:02:48;148.30;;;137.92;;
37877;SDS011;23715;53.652;8.516;2023-03-04T05:07:50;158.65;;;146.85;;
37877;SDS011;23715;53.652;8.516;2023-03-04T05:12:53;139.62;;;129.35;;
37877;SDS011;23715;53.652;8.516;2023-03-04T05:18:04;124.50;;;114.37;;
37877;SDS011;23715;53.652;8.516;2023-03-04T05:23:06;111.92;;;103.97;;
37877;SDS011;23715;53.652;8.516;2023-03-04T05:28:07;85.32;;;79.05;;
37877;SDS011;23715;53.652;8.516;2023-03-04T05:33:12;85.32;;;78.75;;
37877;SDS011;23715;53.652;8.516;2023-03-04T05:38:13;89.60;;;82.90;;
37877;SDS011;23715;53.652;8.516;2023-03-04T05:43:16;77.07;;;69.77;;
37877;SDS011;23715;53.652;8.516;2023-03-04T05:48:16;87.30;;;80.17;;
37877;SDS011;23715;53.652;8.516;2023-03-04T05:58:16;97.40;;;89.90;;
37877;SDS011;23715;53.652;8.516;2023-03-04T06:03:19;106.87;;;99.15;;
37877;SDS011;23715;53.652;8.516;2023-03-04T06:08:22;97.95;;;89.32;;
37877;SDS011;23715;53.652;8.516;2023-03-04T06:23:25;91.80;;;83.72;;
37877;SDS011;23715;53.652;8.516;2023-03-04T06:28:25;81.42;;;74.47;;
37877;SDS011;23715;53.652;8.516;2023-03-04T06:38:25;83.07;;;76.28;;
37877;SDS011;23715;53.652;8.516;2023-03-04T06:43:26;77.95;;;70.30;;
37877;SDS011;23715;53.652;8.516;2023-03-04T06:48:26;63.25;;;57.20;;
37877;SDS011;23715;53.652;8.516;2023-03-04T06:53:29;62.15;;;56.18;;
37877;SDS011;23715;53.652;8.516;2023-03-04T06:58:29;59.85;;;54.38;;
37877;SDS011;23715;53.652;8.516;2023-03-04T07:03:29;56.10;;;50.15;;
37877;SDS011;23715;53.652;8.516;2023-03-04T07:08:31;51.40;;;46.50;;
37877;SDS011;23715;53.652;8.516;2023-03-04T07:13:31;47.13;;;41.90;;
37877;SDS011;23715;53.652;8.516;2023-03-04T07:18:33;46.00;;;41.35;;
37877;SDS011;23715;53.652;8.516;2023-03-04T07:23:35;45.92;;;42.43;;
37877;SDS011;23715;53.652;8.516;2023-03-04T07:28:35;42.43;;;39.23;;
37877;SDS011;23715;53.652;8.516;2023-03-04T07:33:35;41.00;;;37.90;;
37877;SDS011;23715;53.652;8.516;2023-03-04T07:38:36;50.33;;;46.28;;
37877;SDS011;23715;53.652;8.516;2023-03-04T07:43:41;48.35;;;43.08;;
37877;SDS011;23715;53.652;8.516;2023-03-04T07:48:43;44.73;;;39.73;;
37877;SDS011;23715;53.652;8.516;2023-03-04T07:53:44;43.05;;;38.73;;
37877;SDS011;23715;53.652;8.516;2023-03-04T07:58:47;39.08;;;34.98;;
37877;SDS011;23715;53.652;8.516;2023-03-04T08:03:49;35.92;;;25.55;;
37877;SDS011;23715;53.652;8.516;2023-03-04T08:08:54;28.90;;;25.45;;
37877;SDS011;23715;53.652;8.516;2023-03-04T08:13:58;35.08;;;30.45;;
37877;SDS011;23715;53.652;8.516;2023-03-04T08:19:00;34.73;;;28.30;;
37877;SDS011;23715;53.652;8.516;2023-03-04T08:24:02;32.85;;;29.37;;
37877;SDS011;23715;53.652;8.516;2023-03-04T08:29:05;40.60;;;31.10;;
37877;SDS011;23715;53.652;8.516;2023-03-04T08:34:09;34.65;;;31.33;;
37877;SDS011;23715;53.652;8.516;2023-03-04T08:39:11;44.05;;;33.42;;
37877;SDS011;23715;53.652;8.516;2023-03-04T08:44:14;41.28;;;35.05;;
37877;SDS011;23715;53.652;8.516;2023-03-04T08:54:14;34.27;;;29.85;;
37877;SDS011;23715;53.652;8.516;2023-03-04T08:59:16;45.23;;;32.23;;
37877;SDS011;23715;53.652;8.516;2023-03-04T09:04:16;48.75;;;36.73;;
37877;SDS011;23715;53.652;8.516;2023-03-04T09:09:18;53.08;;;39.27;;
37877;SDS011;23715;53.652;8.516;2023-03-04T09:14:19;39.63;;;31.52;;
37877;SDS011;23715;53.652;8.516;2023-03-04T09:19:21;44.13;;;27.50;;
37877;SDS011;23715;53.652;8.516;2023-03-04T09:24:22;34.10;;;28.80;;
37877;SDS011;23715;53.652;8.516;2023-03-04T09:29:23;37.23;;;29.48;;
37877;SDS011;23715;53.652;8.516;2023-03-04T09:34:25;35.95;;;28.20;;
37877;SDS011;23715;53.652;8.516;2023-03-04T09:44:39;35.70;;;31.42;;
37877;SDS011;23715;53.652;8.516;2023-03-04T09:49:41;43.20;;;34.92;;
37877;SDS011;23715;53.652;8.516;2023-03-04T09:54:59;44.53;;;30.97;;
37877;SDS011;23715;53.652;8.516;2023-03-04T10:00:06;40.23;;;28.42;;
37877;SDS011;23715;53.652;8.516;2023-03-04T10:05:09;50.40;;;30.17;;
37877;SDS011;23715;53.652;8.516;2023-03-04T10:10:19;45.58;;;29.55;;
37877;SDS011;23715;53.652;8.516;2023-03-04T10:15:32;39.33;;;29.15;;
37877;SDS011;23715;53.652;8.516;2023-03-04T10:25:50;46.15;;;25.25;;
37877;SDS011;23715;53.652;8.516;2023-03-04T10:31:11;45.25;;;32.28;;
37877;SDS011;23715;53.652;8.516;2023-03-04T10:41:29;38.48;;;34.35;;
37877;SDS011;23715;53.652;8.516;2023-03-04T10:46:31;48.00;;;39.80;;
37877;SDS011;23715;53.652;8.516;2023-03-04T10:51:40;50.48;;;37.63;;
37877;SDS011;23715;53.652;8.516;2023-03-04T10:56:39;52.15;;;35.88;;
37877;SDS011;23715;53.652;8.516;2023-03-04T11:01:42;40.67;;;29.80;;
37877;SDS011;23715;53.652;8.516;2023-03-04T11:11:42;40.92;;;26.60;;
37877;SDS011;23715;53.652;8.516;2023-03-04T11:16:46;44.58;;;27.65;;
37877;SDS011;23715;53.652;8.516;2023-03-04T11:21:46;40.23;;;27.67;;
37877;SDS011;23715;53.652;8.516;2023-03-04T11:26:50;35.48;;;31.25;;
37877;SDS011;23715;53.652;8.516;2023-03-04T11:31:54;44.70;;;27.85;;
37877;SDS011;23715;53.652;8.516;2023-03-04T11:42:36;34.07;;;25.30;;
37877;SDS011;23715;53.652;8.516;2023-03-04T11:47:47;38.92;;;27.40;;
37877;SDS011;23715;53.652;8.516;2023-03-04T12:09:20;43.08;;;31.50;;
37877;SDS011;23715;53.652;8.516;2023-03-04T12:14:42;47.38;;;31.57;;
37877;SDS011;23715;53.652;8.516;2023-03-04T12:25:08;42.05;;;32.50;;
37877;SDS011;23715;53.652;8.516;2023-03-04T12:30:32;42.43;;;36.17;;
37877;SDS011;23715;53.652;8.516;2023-03-04T12:35:37;41.10;;;35.28;;
37877;SDS011;23715;53.652;8.516;2023-03-04T12:46:01;43.02;;;29.35;;
37877;SDS011;23715;53.652;8.516;2023-03-04T12:51:04;36.70;;;30.23;;
37877;SDS011;23715;53.652;8.516;2023-03-04T13:01:28;35.00;;;27.87;;
37877;SDS011;23715;53.652;8.516;2023-03-04T13:11:43;29.12;;;26.40;;
37877;SDS011;23715;53.652;8.516;2023-03-04T13:16:49;36.05;;;28.85;;
37877;SDS011;23715;53.652;8.516;2023-03-04T13:21:55;27.10;;;23.52;;
37877;SDS011;23715;53.652;8.516;2023-03-04T13:26:56;28.05;;;24.85;;
37877;SDS011;23715;53.652;8.516;2023-03-04T13:32:08;30.37;;;27.45;;
37877;SDS011;23715;53.652;8.516;2023-03-04T13:42:38;32.93;;;26.07;;
37877;SDS011;23715;53.652;8.516;2023-03-04T13:47:43;31.70;;;27.40;;
37877;SDS011;23715;53.652;8.516;2023-03-04T13:52:44;33.10;;;29.55;;
37877;SDS011;23715;53.652;8.516;2023-03-04T13:57:49;30.97;;;25.80;;
37877;SDS011;23715;53.652;8.516;2023-03-04T14:02:50;34.23;;;27.80;;
37877;SDS011;23715;53.652;8.516;2023-03-04T14:07:50;35.03;;;20.52;;
37877;SDS011;23715;53.652;8.516;2023-03-04T14:17:57;27.87;;;17.82;;
37877;SDS011;23715;53.652;8.516;2023-03-04T14:23:01;25.00;;;15.53;;
37877;SDS011;23715;53.652;8.516;2023-03-04T14:28:13;23.10;;;14.15;;
37877;SDS011;23715;53.652;8.516;2023-03-04T14:33:17;29.48;;;15.90;;
37877;SDS011;23715;53.652;8.516;2023-03-04T14:38:23;27.52;;;17.00;;
37877;SDS011;23715;53.652;8.516;2023-03-04T14:43:25;27.95;;;14.07;;
37877;SDS011;23715;53.652;8.516;2023-03-04T14:48:28;34.67;;;17.43;;
37877;SDS011;23715;53.652;8.516;2023-03-04T14:53:31;24.05;;;14.07;;
37877;SDS011;23715;53.652;8.516;2023-03-04T14:58:51;34.88;;;16.70;;
37877;SDS011;23715;53.652;8.516;2023-03-04T15:03:41;21.10;;;15.00;;
37877;SDS011;23715;53.652;8.516;2023-03-04T15:08:43;23.45;;;14.70;;
37877;SDS011;23715;53.652;8.516;2023-03-04T15:13:47;27.02;;;14.73;;
37877;SDS011;23715;53.652;8.516;2023-03-04T15:18:57;27.00;;;11.83;;
37877;SDS011;23715;53.652;8.516;2023-03-04T15:24:04;25.45;;;13.48;;
37877;SDS011;23715;53.652;8.516;2023-03-04T15:29:13;30.25;;;14.35;;
37877;SDS011;23715;53.652;8.516;2023-03-04T15:34:16;28.07;;;15.17;;
37877;SDS011;23715;53.652;8.516;2023-03-04T15:39:17;22.27;;;13.08;;
37877;SDS011;23715;53.652;8.516;2023-03-04T15:44:22;26.52;;;15.58;;
37877;SDS011;23715;53.652;8.516;2023-03-04T15:49:23;24.92;;;15.75;;
37877;SDS011;23715;53.652;8.516;2023-03-04T15:54:23;20.92;;;14.68;;
37877;SDS011;23715;53.652;8.516;2023-03-04T15:59:27;22.62;;;14.87;;
37877;SDS011;23715;53.652;8.516;2023-03-04T16:04:31;27.83;;;14.73;;
37877;SDS011;23715;53.652;8.516;2023-03-04T16:14:33;19.47;;;14.63;;
37877;SDS011;23715;53.652;8.516;2023-03-04T16:19:33;19.35;;;14.25;;
37877;SDS011;23715;53.652;8.516;2023-03-04T16:24:35;16.80;;;13.83;;
37877;SDS011;23715;53.652;8.516;2023-03-04T16:29:36;15.10;;;12.18;;
37877;SDS011;23715;53.652;8.516;2023-03-04T16:34:40;17.42;;;12.95;;
37877;SDS011;23715;53.652;8.516;2023-03-04T16:39:42;17.52;;;12.30;;
37877;SDS011;23715;53.652;8.516;2023-03-04T16:44:46;27.93;;;12.03;;
37877;SDS011;23715;53.652;8.516;2023-03-04T16:49:53;20.88;;;13.38;;
37877;SDS011;23715;53.652;8.516;2023-03-04T16:54:53;20.62;;;13.78;;
37877;SDS011;23715;53.652;8.516;2023-03-04T16:59:54;24.57;;;12.85;;
37877;SDS011;23715;53.652;8.516;2023-03-04T17:04:56;25.90;;;20.50;;
37877;SDS011;23715;53.652;8.516;2023-03-04T17:14:57;35.00;;;31.67;;
37877;SDS011;23715;53.652;8.516;2023-03-04T17:20:06;39.83;;;35.85;;
37877;SDS011;23715;53.652;8.516;2023-03-04T17:25:03;37.75;;;34.23;;
37877;SDS011;23715;53.652;8.516;2023-03-04T17:30:04;32.80;;;30.35;;
37877;SDS011;23715;53.652;8.516;2023-03-04T17:35:06;27.02;;;24.50;;
37877;SDS011;23715;53.652;8.516;2023-03-04T17:40:07;26.55;;;23.77;;
37877;SDS011;23715;53.652;8.516;2023-03-04T17:45:14;27.73;;;25.70;;
37877;SDS011;23715;53.652;8.516;2023-03-04T17:50:15;28.00;;;25.85;;
37877;SDS011;23715;53.652;8.516;2023-03-04T17:55:15;27.73;;;25.23;;
37877;SDS011;23715;53.652;8.516;2023-03-04T18:00:16;32.87;;;28.80;;
37877;SDS011;23715;53.652;8.516;2023-03-04T18:05:17;36.05;;;32.05;;
37877;SDS011;23715;53.652;8.516;2023-03-04T18:15:17;35.40;;;31.87;;
37877;SDS011;23715;53.652;8.516;2023-03-04T18:20:18;35.50;;;32.48;;
37877;SDS011;23715;53.652;8.516;2023-03-04T18:25:18;32.75;;;29.95;;
37877;SDS011;23715;53.652;8.516;2023-03-04T18:30:22;31.90;;;28.93;;
37877;SDS011;23715;53.652;8.516;2023-03-04T18:35:22;35.10;;;31.60;;
37877;SDS011;23715;53.652;8.516;2023-03-04T18:40:22;29.60;;;27.30;;
37877;SDS011;23715;53.652;8.516;2023-03-04T18:45:24;25.52;;;23.83;;
37877;SDS011;23715;53.652;8.516;2023-03-04T18:50:25;27.82;;;25.40;;
37877;SDS011;23715;53.652;8.516;2023-03-04T18:55:25;33.33;;;30.00;;
37877;SDS011;23715;53.652;8.516;2023-03-04T19:00:26;32.17;;;29.20;;
37877;SDS011;23715;53.652;8.516;2023-03-04T19:05:28;32.50;;;30.27;;
37877;SDS011;23715;53.652;8.516;2023-03-04T19:10:30;37.13;;;35.03;;
37877;SDS011;23715;53.652;8.516;2023-03-04T19:15:30;31.50;;;29.50;;
37877;SDS011;23715;53.652;8.516;2023-03-04T19:20:30;31.35;;;29.40;;
37877;SDS011;23715;53.652;8.516;2023-03-04T19:25:35;34.60;;;32.13;;
37877;SDS011;23715;53.652;8.516;2023-03-04T19:30:39;34.98;;;32.38;;
37877;SDS011;23715;53.652;8.516;2023-03-04T19:35:40;37.50;;;34.80;;
37877;SDS011;23715;53.652;8.516;2023-03-04T19:40:41;39.85;;;36.70;;
37877;SDS011;23715;53.652;8.516;2023-03-04T19:45:50;41.05;;;37.28;;
37877;SDS011;23715;53.652;8.516;2023-03-04T19:50:54;44.88;;;41.40;;
37877;SDS011;23715;53.652;8.516;2023-03-04T19:55:54;49.95;;;45.40;;
37877;SDS011;23715;53.652;8.516;2023-03-04T20:00:57;49.70;;;45.50;;
37877;SDS011;23715;53.652;8.516;2023-03-04T20:06:07;46.73;;;42.65;;
37877;SDS011;23715;53.652;8.516;2023-03-04T20:11:06;43.57;;;40.03;;
37877;SDS011;23715;53.652;8.516;2023-03-04T20:16:13;43.63;;;39.92;;
37877;SDS011;23715;53.652;8.516;2023-03-04T20:21:15;41.35;;;37.67;;
37877;SDS011;23715;53.652;8.516;2023-03-04T20:26:22;42.50;;;38.85;;
37877;SDS011;23715;53.652;8.516;2023-03-04T20:31:24;43.63;;;40.23;;
37877;SDS011;23715;53.652;8.516;2023-03-04T20:36:28;44.65;;;41.30;;
37877;SDS011;23715;53.652;8.516;2023-03-04T20:41:28;45.98;;;42.10;;
37877;SDS011;23715;53.652;8.516;2023-03-04T20:46:30;48.90;;;44.20;;
37877;SDS011;23715;53.652;8.516;2023-03-04T20:51:37;45.60;;;40.90;;
37877;SDS011;23715;53.652;8.516;2023-03-04T20:56:37;48.20;;;44.58;;
37877;SDS011;23715;53.652;8.516;2023-03-04T21:01:40;45.28;;;41.73;;
37877;SDS011;23715;53.652;8.516;2023-03-04T21:06:41;38.50;;;35.35;;
37877;SDS011;23715;53.652;8.516;2023-03-04T21:11:44;35.35;;;32.78;;
37877;SDS011;23715;53.652;8.516;2023-03-04T21:16:52;33.23;;;30.70;;
37877;SDS011;23715;53.652;8.516;2023-03-04T21:21:52;36.05;;;33.75;;
37877;SDS011;23715;53.652;8.516;2023-03-04T21:26:54;35.17;;;32.05;;
37877;SDS011;23715;53.652;8.516;2023-03-04T21:37:01;35.25;;;32.63;;
37877;SDS011;23715;53.652;8.516;2023-03-04T21:42:02;33.60;;;31.05;;
37877;SDS011;23715;53.652;8.516;2023-03-04T21:47:02;30.60;;;28.25;;
37877;SDS011;23715;53.652;8.516;2023-03-04T21:52:03;29.00;;;26.85;;
37877;SDS011;23715;53.652;8.516;2023-03-04T21:57:03;28.47;;;26.40;;
37877;SDS011;23715;53.652;8.516;2023-03-04T22:02:03;26.90;;;24.55;;
37877;SDS011;23715;53.652;8.516;2023-03-04T22:07:04;26.40;;;24.00;;
37877;SDS011;23715;53.652;8.516;2023-03-04T22:12:05;31.48;;;29.07;;
37877;SDS011;23715;53.652;8.516;2023-03-04T22:17:05;32.90;;;30.30;;
37877;SDS011;23715;53.652;8.516;2023-03-04T22:22:05;31.57;;;29.27;;
37877;SDS011;23715;53.652;8.516;2023-03-04T22:32:05;39.73;;;36.45;;
37877;SDS011;23715;53.652;8.516;2023-03-04T22:37:05;38.42;;;35.25;;
37877;SDS011;23715;53.652;8.516;2023-03-04T22:42:06;46.15;;;43.13;;
37877;SDS011;23715;53.652;8.516;2023-03-04T22:47:08;46.95;;;43.55;;
37877;SDS011;23715;53.652;8.516;2023-03-04T22:52:08;46.28;;;43.05;;
37877;SDS011;23715;53.652;8.516;2023-03-04T22:57:08;50.83;;;47.25;;
37877;SDS011;23715;53.652;8.516;2023-03-04T23:02:08;43.60;;;40.55;;
37877;SDS011;23715;53.652;8.516;2023-03-04T23:07:09;42.20;;;39.42;;
37877;SDS011;23715;53.652;8.516;2023-03-04T23:12:09;41.82;;;39.10;;
37877;SDS011;23715;53.652;8.516;2023-03-04T23:17:09;45.83;;;43.02;;
37877;SDS011;23715;53.652;8.516;2023-03-04T23:22:09;45.13;;;42.40;;
37877;SDS011;23715;53.652;8.516;2023-03-04T23:27:10;47.38;;;44.63;;
37877;SDS011;23715;53.652;8.516;2023-03-04T23:32:10;46.55;;;43.75;;
37877;SDS011;23715;53.652;8.516;2023-03-04T23:37:10;47.48;;;44.30;;
37877;SDS011;23715;53.652;8.516;2023-03-04T23:42:10;39.80;;;37.15;;
37877;SDS011;23715;53.652;8.516;2023-03-04T23:47:11;41.20;;;38.70;;
37877;SDS011;23715;53.652;8.516;2023-03-04T23:52:11;40.98;;;38.00;;
37877;SDS011;23715;53.652;8.516;2023-03-04T23:57:11;38.98;;;36.38;;
